Terminal Aerodrome Forecast
Issued by NWS

Home | Current Version | Previous Version | Text Only | Print | Product List | Glossary On
Versions: 1 2 3 4 5 6 7 8 9 10 11 12 13
000
FTUS44 KCRP 011700
TAFLRD
TAF
KLRD 011736Z 0118/0218 14010KT P6SM SCT040
     FM020700 14009KT P6SM FEW020
      TEMPO 0208/0212 BKN020
     FM021500 16015KT P6SM SCT040=

USA.gov is the U.S. government's official web portal to all federal, state and local government web resources and services.